sensor_id;sensor_type;location;lat;lon;timestamp;temperature;humidity
43541;DHT22;29549;40.386;-3.710;2023-12-20T00:00:08;8.70;60.70
43541;DHT22;29549;40.386;-3.710;2023-12-20T00:00:19;8.70;60.80
43541;DHT22;29549;40.386;-3.710;2023-12-20T00:00:30;8.70;60.80
43541;DHT22;29549;40.386;-3.710;2023-12-20T00:00:40;8.70;60.80
43541;DHT22;29549;40.386;-3.710;2023-12-20T00:00:51;8.70;60.80
43541;DHT22;29549;40.386;-3.710;2023-12-20T00:01:02;8.70;60.80
43541;DHT22;29549;40.386;-3.710;2023-12-20T00:01:13;8.70;60.90
43541;DHT22;29549;40.386;-3.710;2023-12-20T00:01:23;8.70;60.90
43541;DHT22;29549;40.386;-3.710;2023-12-20T00:01:34;8.70;60.90
43541;DHT22;29549;40.386;-3.710;2023-12-20T00:01:45;8.70;60.90
43541;DHT22;29549;40.386;-3.710;2023-12-20T00:01:56;8.70;60.80
43541;DHT22;29549;40.386;-3.710;2023-12-20T00:02:06;8.70;60.80
43541;DHT22;29549;40.386;-3.710;2023-12-20T00:02:17;8.70;60.90
43541;DHT22;29549;40.386;-3.710;2023-12-20T00:02:28;8.70;60.80
43541;DHT22;29549;40.386;-3.710;2023-12-20T00:02:39;8.70;60.90
43541;DHT22;29549;40.386;-3.710;2023-12-20T00:02:50;8.70;60.90
43541;DHT22;29549;40.386;-3.710;2023-12-20T00:03:00;8.70;60.80
43541;DHT22;29549;40.386;-3.710;2023-12-20T00:03:11;8.70;60.80
43541;DHT22;29549;40.386;-3.710;2023-12-20T00:03:22;8.70;60.80
43541;DHT22;29549;40.386;-3.710;2023-12-20T00:03:34;8.70;60.70
43541;DHT22;29549;40.386;-3.710;2023-12-20T00:03:45;8.70;60.70
43541;DHT22;29549;40.386;-3.710;2023-12-20T00:03:55;8.70;60.70
43541;DHT22;29549;40.386;-3.710;2023-12-20T00:04:06;8.70;60.70
43541;DHT22;29549;40.386;-3.710;2023-12-20T00:04:17;8.70;60.70
43541;DHT22;29549;40.386;-3.710;2023-12-20T00:04:28;8.70;60.60
43541;DHT22;29549;40.386;-3.710;2023-12-20T00:04:38;8.70;60.60
43541;DHT22;29549;40.386;-3.710;2023-12-20T00:04:49;8.70;60.60
43541;DHT22;29549;40.386;-3.710;2023-12-20T00:05:00;8.60;60.60
43541;DHT22;29549;40.386;-3.710;2023-12-20T00:05:11;8.70;60.60
43541;DHT22;29549;40.386;-3.710;2023-12-20T00:05:22;8.60;60.60
43541;DHT22;29549;40.386;-3.710;2023-12-20T00:05:32;8.60;60.60
43541;DHT22;29549;40.386;-3.710;2023-12-20T00:05:43;8.60;60.60
43541;DHT22;29549;40.386;-3.710;2023-12-20T00:05:54;8.60;60.60
43541;DHT22;29549;40.386;-3.710;2023-12-20T00:06:06;8.60;60.60
43541;DHT22;29549;40.386;-3.710;2023-12-20T00:06:16;8.60;60.60
43541;DHT22;29549;40.386;-3.710;2023-12-20T00:06:27;8.60;60.60
43541;DHT22;29549;40.386;-3.710;2023-12-20T00:06:38;8.60;60.60
43541;DHT22;29549;40.386;-3.710;2023-12-20T00:06:49;8.60;60.60
43541;DHT22;29549;40.386;-3.710;2023-12-20T00:06:59;8.50;60.60
43541;DHT22;29549;40.386;-3.710;2023-12-20T00:07:10;8.60;60.50
43541;DHT22;29549;40.386;-3.710;2023-12-20T00:07:21;8.60;60.50
43541;DHT22;29549;40.386;-3.710;2023-12-20T00:07:32;8.60;60.50
43541;DHT22;29549;40.386;-3.710;2023-12-20T00:07:42;8.50;60.40
43541;DHT22;29549;40.386;-3.710;2023-12-20T00:07:53;8.60;60.40
43541;DHT22;29549;40.386;-3.710;2023-12-20T00:08:04;8.50;60.50
43541;DHT22;29549;40.386;-3.710;2023-12-20T00:08:16;8.50;60.50
43541;DHT22;29549;40.386;-3.710;2023-12-20T00:08:26;8.50;60.50
43541;DHT22;29549;40.386;-3.710;2023-12-20T00:08:37;8.50;60.50
43541;DHT22;29549;40.386;-3.710;2023-12-20T00:08:48;8.50;60.50
43541;DHT22;29549;40.386;-3.710;2023-12-20T00:08:59;8.50;60.50
43541;DHT22;29549;40.386;-3.710;2023-12-20T00:09:10;8.50;60.50
43541;DHT22;29549;40.386;-3.710;2023-12-20T00:09:20;8.50;60.50
43541;DHT22;29549;40.386;-3.710;2023-12-20T00:09:31;8.50;60.50
43541;DHT22;29549;40.386;-3.710;2023-12-20T00:09:42;8.50;60.50
43541;DHT22;29549;40.386;-3.710;2023-12-20T00:09:53;8.50;60.50
43541;DHT22;29549;40.386;-3.710;2023-12-20T00:10:03;8.50;60.60
43541;DHT22;29549;40.386;-3.710;2023-12-20T00:10:14;8.50;60.60
43541;DHT22;29549;40.386;-3.710;2023-12-20T00:10:25;8.40;60.60
43541;DHT22;29549;40.386;-3.710;2023-12-20T00:10:36;8.50;60.60
43541;DHT22;29549;40.386;-3.710;2023-12-20T00:10:47;8.50;60.70
43541;DHT22;29549;40.386;-3.710;2023-12-20T00:10:57;8.50;60.70
43541;DHT22;29549;40.386;-3.710;2023-12-20T00:11:08;8.50;60.70
43541;DHT22;29549;40.386;-3.710;2023-12-20T00:11:19;8.50;60.70
43541;DHT22;29549;40.386;-3.710;2023-12-20T00:11:30;8.50;60.70
43541;DHT22;29549;40.386;-3.710;2023-12-20T00:11:40;8.50;60.70
43541;DHT22;29549;40.386;-3.710;2023-12-20T00:11:52;8.40;60.70
43541;DHT22;29549;40.386;-3.710;2023-12-20T00:12:03;8.40;60.70
43541;DHT22;29549;40.386;-3.710;2023-12-20T00:12:14;8.40;60.60
43541;DHT22;29549;40.386;-3.710;2023-12-20T00:12:25;8.50;60.70
43541;DHT22;29549;40.386;-3.710;2023-12-20T00:12:35;8.40;60.60
43541;DHT22;29549;40.386;-3.710;2023-12-20T00:12:46;8.40;60.60
43541;DHT22;29549;40.386;-3.710;2023-12-20T00:12:57;8.40;60.60
43541;DHT22;29549;40.386;-3.710;2023-12-20T00:13:07;8.40;60.50
43541;DHT22;29549;40.386;-3.710;2023-12-20T00:13:18;8.40;60.50
43541;DHT22;29549;40.386;-3.710;2023-12-20T00:13:29;8.40;60.60
43541;DHT22;29549;40.386;-3.710;2023-12-20T00:13:40;8.40;60.50
43541;DHT22;29549;40.386;-3.710;2023-12-20T00:13:50;8.40;60.60
43541;DHT22;29549;40.386;-3.710;2023-12-20T00:14:02;8.40;60.60
43541;DHT22;29549;40.386;-3.710;2023-12-20T00:14:12;8.40;60.60
43541;DHT22;29549;40.386;-3.710;2023-12-20T00:14:23;8.40;60.70
43541;DHT22;29549;40.386;-3.710;2023-12-20T00:14:34;8.40;60.70
43541;DHT22;29549;40.386;-3.710;2023-12-20T00:14:45;8.40;60.70
43541;DHT22;29549;40.386;-3.710;2023-12-20T00:14:55;8.40;60.70
43541;DHT22;29549;40.386;-3.710;2023-12-20T00:15:06;8.40;60.70
43541;DHT22;29549;40.386;-3.710;2023-12-20T00:15:17;8.40;60.70
43541;DHT22;29549;40.386;-3.710;2023-12-20T00:15:28;8.40;60.70
43541;DHT22;29549;40.386;-3.710;2023-12-20T00:15:39;8.40;60.70
43541;DHT22;29549;40.386;-3.710;2023-12-20T00:15:50;8.30;60.70
43541;DHT22;29549;40.386;-3.710;2023-12-20T00:16:00;8.40;60.70
43541;DHT22;29549;40.386;-3.710;2023-12-20T00:16:11;8.40;60.70
43541;DHT22;29549;40.386;-3.710;2023-12-20T00:16:22;8.40;60.70
43541;DHT22;29549;40.386;-3.710;2023-12-20T00:16:33;8.30;60.70
43541;DHT22;29549;40.386;-3.710;2023-12-20T00:16:43;8.40;60.60
43541;DHT22;29549;40.386;-3.710;2023-12-20T00:16:54;8.30;60.60
43541;DHT22;29549;40.386;-3.710;2023-12-20T00:17:05;8.30;60.60
43541;DHT22;29549;40.386;-3.710;2023-12-20T00:17:15;8.30;60.60
43541;DHT22;29549;40.386;-3.710;2023-12-20T00:17:26;8.30;60.60
43541;DHT22;29549;40.386;-3.710;2023-12-20T00:17:37;8.30;60.60
43541;DHT22;29549;40.386;-3.710;2023-12-20T00:17:48;8.30;60.60
43541;DHT22;29549;40.386;-3.710;2023-12-20T00:17:58;8.30;60.60
43541;DHT22;29549;40.386;-3.710;2023-12-20T00:18:09;8.30;60.70
43541;DHT22;29549;40.386;-3.710;2023-12-20T00:18:20;8.30;60.70
43541;DHT22;29549;40.386;-3.710;2023-12-20T00:18:31;8.30;60.70
43541;DHT22;29549;40.386;-3.710;2023-12-20T00:18:41;8.30;60.70
43541;DHT22;29549;40.386;-3.710;2023-12-20T00:18:52;8.30;60.60
43541;DHT22;29549;40.386;-3.710;2023-12-20T00:19:03;8.30;60.60
43541;DHT22;29549;40.386;-3.710;2023-12-20T00:19:14;8.30;60.60
43541;DHT22;29549;40.386;-3.710;2023-12-20T00:19:24;8.30;60.60
43541;DHT22;29549;40.386;-3.710;2023-12-20T00:19:35;8.30;60.50
43541;DHT22;29549;40.386;-3.710;2023-12-20T00:19:46;8.30;60.50
43541;DHT22;29549;40.386;-3.710;2023-12-20T00:19:57;8.30;60.50
43541;DHT22;29549;40.386;-3.710;2023-12-20T00:20:08;8.30;60.50
43541;DHT22;29549;40.386;-3.710;2023-12-20T00:20:19;8.30;60.40
43541;DHT22;29549;40.386;-3.710;2023-12-20T00:20:30;8.30;60.40
43541;DHT22;29549;40.386;-3.710;2023-12-20T00:20:40;8.30;60.40
43541;DHT22;29549;40.386;-3.710;2023-12-20T00:20:51;8.30;60.40
43541;DHT22;29549;40.386;-3.710;2023-12-20T00:21:02;8.30;60.30
43541;DHT22;29549;40.386;-3.710;2023-12-20T00:21:13;8.30;60.30
43541;DHT22;29549;40.386;-3.710;2023-12-20T00:21:23;8.30;60.30
43541;DHT22;29549;40.386;-3.710;2023-12-20T00:21:34;8.30;60.30
43541;DHT22;29549;40.386;-3.710;2023-12-20T00:21:45;8.30;60.30
43541;DHT22;29549;40.386;-3.710;2023-12-20T00:21:56;8.30;60.30
43541;DHT22;29549;40.386;-3.710;2023-12-20T00:22:06;8.20;60.30
43541;DHT22;29549;40.386;-3.710;2023-12-20T00:22:17;8.30;60.30
43541;DHT22;29549;40.386;-3.710;2023-12-20T00:22:28;8.20;60.40
43541;DHT22;29549;40.386;-3.710;2023-12-20T00:22:39;8.20;60.40
43541;DHT22;29549;40.386;-3.710;2023-12-20T00:22:49;8.20;60.40
43541;DHT22;29549;40.386;-3.710;2023-12-20T00:23:00;8.20;60.40
43541;DHT22;29549;40.386;-3.710;2023-12-20T00:23:11;8.20;60.30
43541;DHT22;29549;40.386;-3.710;2023-12-20T00:23:22;8.30;60.30
43541;DHT22;29549;40.386;-3.710;2023-12-20T00:23:33;8.20;60.20
43541;DHT22;29549;40.386;-3.710;2023-12-20T00:23:44;8.20;60.20
43541;DHT22;29549;40.386;-3.710;2023-12-20T00:23:55;8.30;60.20
43541;DHT22;29549;40.386;-3.710;2023-12-20T00:24:06;8.30;60.10
43541;DHT22;29549;40.386;-3.710;2023-12-20T00:24:16;8.30;60.10
43541;DHT22;29549;40.386;-3.710;2023-12-20T00:24:28;8.30;60.10
43541;DHT22;29549;40.386;-3.710;2023-12-20T00:24:39;8.20;60.10
43541;DHT22;29549;40.386;-3.710;2023-12-20T00:24:49;8.20;60.10
43541;DHT22;29549;40.386;-3.710;2023-12-20T00:25:00;8.20;60.10
43541;DHT22;29549;40.386;-3.710;2023-12-20T00:25:11;8.20;60.00
43541;DHT22;29549;40.386;-3.710;2023-12-20T00:25:22;8.20;60.00
43541;DHT22;29549;40.386;-3.710;2023-12-20T00:25:32;8.20;60.00
43541;DHT22;29549;40.386;-3.710;2023-12-20T00:25:43;8.20;60.00
43541;DHT22;29549;40.386;-3.710;2023-12-20T00:25:54;8.20;60.00
43541;DHT22;29549;40.386;-3.710;2023-12-20T00:26:05;8.20;60.10
43541;DHT22;29549;40.386;-3.710;2023-12-20T00:26:15;8.20;60.10
43541;DHT22;29549;40.386;-3.710;2023-12-20T00:26:26;8.20;60.10
43541;DHT22;29549;40.386;-3.710;2023-12-20T00:26:38;8.20;60.10
43541;DHT22;29549;40.386;-3.710;2023-12-20T00:26:49;8.20;60.10
43541;DHT22;29549;40.386;-3.710;2023-12-20T00:27:00;8.20;60.10
43541;DHT22;29549;40.386;-3.710;2023-12-20T00:27:10;8.20;60.10
43541;DHT22;29549;40.386;-3.710;2023-12-20T00:27:21;8.20;60.10
43541;DHT22;29549;40.386;-3.710;2023-12-20T00:27:32;8.20;60.10
43541;DHT22;29549;40.386;-3.710;2023-12-20T00:27:43;8.20;60.20
43541;DHT22;29549;40.386;-3.710;2023-12-20T00:27:54;8.10;60.20
43541;DHT22;29549;40.386;-3.710;2023-12-20T00:28:04;8.20;60.20
43541;DHT22;29549;40.386;-3.710;2023-12-20T00:28:15;8.20;60.20
43541;DHT22;29549;40.386;-3.710;2023-12-20T00:28:26;8.10;60.10
43541;DHT22;29549;40.386;-3.710;2023-12-20T00:28:37;8.10;60.10
43541;DHT22;29549;40.386;-3.710;2023-12-20T00:28:48;8.20;60.10
43541;DHT22;29549;40.386;-3.710;2023-12-20T00:28:59;8.10;60.10
43541;DHT22;29549;40.386;-3.710;2023-12-20T00:29:09;8.10;60.10
43541;DHT22;29549;40.386;-3.710;2023-12-20T00:29:20;8.10;60.10
43541;DHT22;29549;40.386;-3.710;2023-12-20T00:29:31;8.10;60.00
43541;DHT22;29549;40.386;-3.710;2023-12-20T00:29:41;8.00;60.10
43541;DHT22;29549;40.386;-3.710;2023-12-20T00:29:53;8.10;60.20
43541;DHT22;29549;40.386;-3.710;2023-12-20T00:30:04;8.10;60.20
43541;DHT22;29549;40.386;-3.710;2023-12-20T00:30:15;8.10;60.20
43541;DHT22;29549;40.386;-3.710;2023-12-20T00:30:26;8.00;60.10
43541;DHT22;29549;40.386;-3.710;2023-12-20T00:30:37;8.00;60.20
43541;DHT22;29549;40.386;-3.710;2023-12-20T00:30:48;8.00;60.20
43541;DHT22;29549;40.386;-3.710;2023-12-20T00:30:58;8.10;60.20
43541;DHT22;29549;40.386;-3.710;2023-12-20T00:31:09;8.00;60.20
43541;DHT22;29549;40.386;-3.710;2023-12-20T00:31:20;8.00;60.20
43541;DHT22;29549;40.386;-3.710;2023-12-20T00:31:31;8.00;60.20
43541;DHT22;29549;40.386;-3.710;2023-12-20T00:31:41;8.00;60.20
43541;DHT22;29549;40.386;-3.710;2023-12-20T00:31:52;8.00;60.30
43541;DHT22;29549;40.386;-3.710;2023-12-20T00:32:03;8.00;60.30
43541;DHT22;29549;40.386;-3.710;2023-12-20T00:32:14;8.00;60.20
43541;DHT22;29549;40.386;-3.710;2023-12-20T00:32:25;8.00;60.20
43541;DHT22;29549;40.386;-3.710;2023-12-20T00:32:36;8.00;60.30
43541;DHT22;29549;40.386;-3.710;2023-12-20T00:32:47;8.00;60.30
43541;DHT22;29549;40.386;-3.710;2023-12-20T00:32:58;8.00;60.30
43541;DHT22;29549;40.386;-3.710;2023-12-20T00:33:08;8.00;60.40
43541;DHT22;29549;40.386;-3.710;2023-12-20T00:33:19;8.00;60.40
43541;DHT22;29549;40.386;-3.710;2023-12-20T00:33:30;8.00;60.40
43541;DHT22;29549;40.386;-3.710;2023-12-20T00:33:41;8.00;60.40
43541;DHT22;29549;40.386;-3.710;2023-12-20T00:33:54;8.00;60.40
43541;DHT22;29549;40.386;-3.710;2023-12-20T00:34:05;8.00;60.30
43541;DHT22;29549;40.386;-3.710;2023-12-20T00:34:15;8.00;60.30
43541;DHT22;29549;40.386;-3.710;2023-12-20T00:34:26;8.00;60.30
43541;DHT22;29549;40.386;-3.710;2023-12-20T00:34:37;8.00;60.40
43541;DHT22;29549;40.386;-3.710;2023-12-20T00:34:48;8.00;60.40
43541;DHT22;29549;40.386;-3.710;2023-12-20T00:34:58;8.00;60.40
43541;DHT22;29549;40.386;-3.710;2023-12-20T00:35:09;7.90;60.40
43541;DHT22;29549;40.386;-3.710;2023-12-20T00:35:20;8.00;60.40
43541;DHT22;29549;40.386;-3.710;2023-12-20T00:35:31;8.00;60.40
43541;DHT22;29549;40.386;-3.710;2023-12-20T00:35:41;8.00;60.40
43541;DHT22;29549;40.386;-3.710;2023-12-20T00:35:52;7.90;60.40
43541;DHT22;29549;40.386;-3.710;2023-12-20T00:36:03;7.90;60.40
43541;DHT22;29549;40.386;-3.710;2023-12-20T00:36:14;7.90;60.50
43541;DHT22;29549;40.386;-3.710;2023-12-20T00:36:25;7.90;60.50
43541;DHT22;29549;40.386;-3.710;2023-12-20T00:36:36;7.90;60.60
43541;DHT22;29549;40.386;-3.710;2023-12-20T00:36:47;7.90;60.60
43541;DHT22;29549;40.386;-3.710;2023-12-20T00:36:57;7.90;60.60
43541;DHT22;29549;40.386;-3.710;2023-12-20T00:37:08;7.90;60.60
43541;DHT22;29549;40.386;-3.710;2023-12-20T00:37:19;7.90;60.70
43541;DHT22;29549;40.386;-3.710;2023-12-20T00:37:30;7.90;60.70
43541;DHT22;29549;40.386;-3.710;2023-12-20T00:37:41;7.90;60.70
43541;DHT22;29549;40.386;-3.710;2023-12-20T00:37:51;7.90;60.70
43541;DHT22;29549;40.386;-3.710;2023-12-20T00:38:02;7.80;60.60
43541;DHT22;29549;40.386;-3.710;2023-12-20T00:38:15;7.90;60.60
43541;DHT22;29549;40.386;-3.710;2023-12-20T00:38:26;7.90;60.60
43541;DHT22;29549;40.386;-3.710;2023-12-20T00:38:37;7.80;60.60
43541;DHT22;29549;40.386;-3.710;2023-12-20T00:38:48;7.90;60.60
43541;DHT22;29549;40.386;-3.710;2023-12-20T00:38:59;7.80;60.60
43541;DHT22;29549;40.386;-3.710;2023-12-20T00:39:10;7.80;60.50
43541;DHT22;29549;40.386;-3.710;2023-12-20T00:39:20;7.80;60.60
43541;DHT22;29549;40.386;-3.710;2023-12-20T00:39:31;7.80;60.60
43541;DHT22;29549;40.386;-3.710;2023-12-20T00:39:43;7.80;60.50
43541;DHT22;29549;40.386;-3.710;2023-12-20T00:39:54;7.80;60.50
43541;DHT22;29549;40.386;-3.710;2023-12-20T00:40:05;7.80;60.50
43541;DHT22;29549;40.386;-3.710;2023-12-20T00:40:16;7.80;60.50
43541;DHT22;29549;40.386;-3.710;2023-12-20T00:40:27;7.80;60.50
43541;DHT22;29549;40.386;-3.710;2023-12-20T00:40:38;7.80;60.50
43541;DHT22;29549;40.386;-3.710;2023-12-20T00:40:48;7.80;60.50
43541;DHT22;29549;40.386;-3.710;2023-12-20T00:41:00;7.80;60.50
43541;DHT22;29549;40.386;-3.710;2023-12-20T00:41:11;7.80;60.60
43541;DHT22;29549;40.386;-3.710;2023-12-20T00:41:21;7.80;60.60
43541;DHT22;29549;40.386;-3.710;2023-12-20T00:41:32;7.80;60.60
43541;DHT22;29549;40.386;-3.710;2023-12-20T00:41:43;7.80;60.60
43541;DHT22;29549;40.386;-3.710;2023-12-20T00:41:54;7.70;60.60
43541;DHT22;29549;40.386;-3.710;2023-12-20T00:42:04;7.80;60.60
43541;DHT22;29549;40.386;-3.710;2023-12-20T00:42:15;7.80;60.60
43541;DHT22;29549;40.386;-3.710;2023-12-20T00:42:26;7.80;60.60
43541;DHT22;29549;40.386;-3.710;2023-12-20T00:42:37;7.80;60.70
43541;DHT22;29549;40.386;-3.710;2023-12-20T00:42:48;7.80;60.70
43541;DHT22;29549;40.386;-3.710;2023-12-20T00:42:59;7.80;60.70
43541;DHT22;29549;40.386;-3.710;2023-12-20T00:43:09;7.80;60.70
43541;DHT22;29549;40.386;-3.710;2023-12-20T00:43:20;7.70;60.70
43541;DHT22;29549;40.386;-3.710;2023-12-20T00:43:31;7.70;60.70
43541;DHT22;29549;40.386;-3.710;2023-12-20T00:43:42;7.70;60.80
43541;DHT22;29549;40.386;-3.710;2023-12-20T00:43:52;7.70;60.70
43541;DHT22;29549;40.386;-3.710;2023-12-20T00:44:03;7.70;60.70
43541;DHT22;29549;40.386;-3.710;2023-12-20T00:44:14;7.70;60.70
43541;DHT22;29549;40.386;-3.710;2023-12-20T00:44:25;7.70;60.70
43541;DHT22;29549;40.386;-3.710;2023-12-20T00:44:36;7.70;60.60
43541;DHT22;29549;40.386;-3.710;2023-12-20T00:44:46;7.70;60.60
43541;DHT22;29549;40.386;-3.710;2023-12-20T00:44:58;7.70;60.60
43541;DHT22;29549;40.386;-3.710;2023-12-20T00:45:09;7.70;60.70
43541;DHT22;29549;40.386;-3.710;2023-12-20T00:45:20;7.70;60.70
43541;DHT22;29549;40.386;-3.710;2023-12-20T00:45:30;7.70;60.70
43541;DHT22;29549;40.386;-3.710;2023-12-20T00:45:41;7.70;60.70
43541;DHT22;29549;40.386;-3.710;2023-12-20T00:45:52;7.70;60.70
43541;DHT22;29549;40.386;-3.710;2023-12-20T00:46:03;7.70;60.70
43541;DHT22;29549;40.386;-3.710;2023-12-20T00:46:13;7.70;60.70
43541;DHT22;29549;40.386;-3.710;2023-12-20T00:46:24;7.70;60.80
43541;DHT22;29549;40.386;-3.710;2023-12-20T00:46:35;7.70;60.80
43541;DHT22;29549;40.386;-3.710;2023-12-20T00:46:46;7.70;60.80
43541;DHT22;29549;40.386;-3.710;2023-12-20T00:46:57;7.70;60.80
43541;DHT22;29549;40.386;-3.710;2023-12-20T00:47:08;7.70;60.80
43541;DHT22;29549;40.386;-3.710;2023-12-20T00:47:19;7.70;60.90
43541;DHT22;29549;40.386;-3.710;2023-12-20T00:47:30;7.70;60.90
43541;DHT22;29549;40.386;-3.710;2023-12-20T00:47:41;7.70;60.90
43541;DHT22;29549;40.386;-3.710;2023-12-20T00:47:51;7.70;60.90
43541;DHT22;29549;40.386;-3.710;2023-12-20T00:48:02;7.70;60.90
43541;DHT22;29549;40.386;-3.710;2023-12-20T00:48:13;7.70;60.80
43541;DHT22;29549;40.386;-3.710;2023-12-20T00:48:24;7.70;60.80
43541;DHT22;29549;40.386;-3.710;2023-12-20T00:48:37;7.70;60.90
43541;DHT22;29549;40.386;-3.710;2023-12-20T00:48:48;7.70;60.80
43541;DHT22;29549;40.386;-3.710;2023-12-20T00:48:59;7.70;60.90
43541;DHT22;29549;40.386;-3.710;2023-12-20T00:49:09;7.70;60.90
43541;DHT22;29549;40.386;-3.710;2023-12-20T00:49:20;7.70;60.90
43541;DHT22;29549;40.386;-3.710;2023-12-20T00:49:31;7.70;61.00
43541;DHT22;29549;40.386;-3.710;2023-12-20T00:49:41;7.70;61.00
43541;DHT22;29549;40.386;-3.710;2023-12-20T00:49:52;7.70;61.00
43541;DHT22;29549;40.386;-3.710;2023-12-20T00:50:03;7.60;61.00
43541;DHT22;29549;40.386;-3.710;2023-12-20T00:50:14;7.70;61.10
43541;DHT22;29549;40.386;-3.710;2023-12-20T00:50:25;7.60;61.10
43541;DHT22;29549;40.386;-3.710;2023-12-20T00:50:36;7.70;61.10
43541;DHT22;29549;40.386;-3.710;2023-12-20T00:50:46;7.60;61.10
43541;DHT22;29549;40.386;-3.710;2023-12-20T00:50:57;7.60;61.10
43541;DHT22;29549;40.386;-3.710;2023-12-20T00:51:08;7.60;61.10
43541;DHT22;29549;40.386;-3.710;2023-12-20T00:51:19;7.60;61.10
43541;DHT22;29549;40.386;-3.710;2023-12-20T00:51:30;7.60;61.20
43541;DHT22;29549;40.386;-3.710;2023-12-20T00:51:40;7.60;61.20
43541;DHT22;29549;40.386;-3.710;2023-12-20T00:51:51;7.60;61.20
43541;DHT22;29549;40.386;-3.710;2023-12-20T00:52:03;7.60;61.30
43541;DHT22;29549;40.386;-3.710;2023-12-20T00:52:14;7.60;61.30
43541;DHT22;29549;40.386;-3.710;2023-12-20T00:52:25;7.60;61.30
43541;DHT22;29549;40.386;-3.710;2023-12-20T00:52:35;7.60;61.30
43541;DHT22;29549;40.386;-3.710;2023-12-20T00:52:46;7.60;61.30
43541;DHT22;29549;40.386;-3.710;2023-12-20T00:52:57;7.60;61.30
43541;DHT22;29549;40.386;-3.710;2023-12-20T00:53:08;7.60;61.40
43541;DHT22;29549;40.386;-3.710;2023-12-20T00:53:18;7.60;61.30
43541;DHT22;29549;40.386;-3.710;2023-12-20T00:53:29;7.60;61.20
43541;DHT22;29549;40.386;-3.710;2023-12-20T00:53:40;7.60;61.20
43541;DHT22;29549;40.386;-3.710;2023-12-20T00:53:51;7.60;61.20
43541;DHT22;29549;40.386;-3.710;2023-12-20T00:54:05;7.60;61.20
43541;DHT22;29549;40.386;-3.710;2023-12-20T00:54:16;7.60;61.20
43541;DHT22;29549;40.386;-3.710;2023-12-20T00:54:26;7.60;61.20
43541;DHT22;29549;40.386;-3.710;2023-12-20T00:54:37;7.60;61.30
43541;DHT22;29549;40.386;-3.710;2023-12-20T00:54:48;7.60;61.30
43541;DHT22;29549;40.386;-3.710;2023-12-20T00:54:59;7.60;61.30
43541;DHT22;29549;40.386;-3.710;2023-12-20T00:55:10;7.60;61.30
43541;DHT22;29549;40.386;-3.710;2023-12-20T00:55:21;7.60;61.30
43541;DHT22;29549;40.386;-3.710;2023-12-20T00:55:31;7.60;61.30
43541;DHT22;29549;40.386;-3.710;2023-12-20T00:55:42;7.60;61.30
43541;DHT22;29549;40.386;-3.710;2023-12-20T00:55:54;7.60;61.30
43541;DHT22;29549;40.386;-3.710;2023-12-20T00:56:05;7.60;61.30
43541;DHT22;29549;40.386;-3.710;2023-12-20T00:56:16;7.60;61.30
43541;DHT22;29549;40.386;-3.710;2023-12-20T00:56:27;7.50;61.40
43541;DHT22;29549;40.386;-3.710;2023-12-20T00:56:38;7.50;61.40
43541;DHT22;29549;40.386;-3.710;2023-12-20T00:56:49;7.50;61.40
43541;DHT22;29549;40.386;-3.710;2023-12-20T00:56:59;7.50;61.50
43541;DHT22;29549;40.386;-3.710;2023-12-20T00:57:10;7.50;61.50
43541;DHT22;29549;40.386;-3.710;2023-12-20T00:57:21;7.50;61.60
43541;DHT22;29549;40.386;-3.710;2023-12-20T00:57:32;7.50;61.60
43541;DHT22;29549;40.386;-3.710;2023-12-20T00:57:43;7.50;61.60
43541;DHT22;29549;40.386;-3.710;2023-12-20T00:57:53;7.50;61.60
43541;DHT22;29549;40.386;-3.710;2023-12-20T00:58:04;7.50;61.60
43541;DHT22;29549;40.386;-3.710;2023-12-20T00:58:15;7.50;61.70
43541;DHT22;29549;40.386;-3.710;2023-12-20T00:58:26;7.50;61.70
43541;DHT22;29549;40.386;-3.710;2023-12-20T00:58:38;7.50;61.70
43541;DHT22;29549;40.386;-3.710;2023-12-20T00:58:49;7.50;61.70
43541;DHT22;29549;40.386;-3.710;2023-12-20T00:59:00;7.50;61.60
43541;DHT22;29549;40.386;-3.710;2023-12-20T00:59:11;7.50;61.70
43541;DHT22;29549;40.386;-3.710;2023-12-20T00:59:21;7.60;61.70
43541;DHT22;29549;40.386;-3.710;2023-12-20T00:59:32;7.50;61.70
43541;DHT22;29549;40.386;-3.710;2023-12-20T00:59:43;7.50;61.70
43541;DHT22;29549;40.386;-3.710;2023-12-20T00:59:54;7.50;61.70
43541;DHT22;29549;40.386;-3.710;2023-12-20T01:00:05;7.50;61.80
43541;DHT22;29549;40.386;-3.710;2023-12-20T01:00:16;7.50;61.80
43541;DHT22;29549;40.386;-3.710;2023-12-20T01:00:27;7.50;61.80
43541;DHT22;29549;40.386;-3.710;2023-12-20T01:00:38;7.50;61.80
43541;DHT22;29549;40.386;-3.710;2023-12-20T01:00:48;7.50;61.80
43541;DHT22;29549;40.386;-3.710;2023-12-20T01:00:59;7.50;61.80
43541;DHT22;29549;40.386;-3.710;2023-12-20T01:01:10;7.50;61.80
43541;DHT22;29549;40.386;-3.710;2023-12-20T01:01:21;7.50;61.80
43541;DHT22;29549;40.386;-3.710;2023-12-20T01:01:32;7.50;61.90
43541;DHT22;29549;40.386;-3.710;2023-12-20T01:01:43;7.50;61.90
43541;DHT22;29549;40.386;-3.710;2023-12-20T01:01:54;7.50;61.90
43541;DHT22;29549;40.386;-3.710;2023-12-20T01:02:05;7.50;61.90
43541;DHT22;29549;40.386;-3.710;2023-12-20T01:02:16;7.50;61.90
43541;DHT22;29549;40.386;-3.710;2023-12-20T01:02:27;7.50;61.90
43541;DHT22;29549;40.386;-3.710;2023-12-20T01:02:37;7.40;61.90
43541;DHT22;29549;40.386;-3.710;2023-12-20T01:02:48;7.50;61.90
43541;DHT22;29549;40.386;-3.710;2023-12-20T01:03:00;7.40;61.90
43541;DHT22;29549;40.386;-3.710;2023-12-20T01:03:11;7.50;61.90
43541;DHT22;29549;40.386;-3.710;2023-12-20T01:03:21;7.50;61.90
43541;DHT22;29549;40.386;-3.710;2023-12-20T01:03:32;7.50;61.90
43541;DHT22;29549;40.386;-3.710;2023-12-20T01:03:43;7.40;61.90
43541;DHT22;29549;40.386;-3.710;2023-12-20T01:03:54;7.40;61.90
43541;DHT22;29549;40.386;-3.710;2023-12-20T01:04:05;7.50;61.90
43541;DHT22;29549;40.386;-3.710;2023-12-20T01:04:16;7.50;61.90
43541;DHT22;29549;40.386;-3.710;2023-12-20T01:04:27;7.40;61.90
43541;DHT22;29549;40.386;-3.710;2023-12-20T01:04:38;7.40;61.90
43541;DHT22;29549;40.386;-3.710;2023-12-20T01:04:49;7.40;62.00
43541;DHT22;29549;40.386;-3.710;2023-12-20T01:05:00;7.50;62.00
43541;DHT22;29549;40.386;-3.710;2023-12-20T01:05:10;7.50;62.00
43541;DHT22;29549;40.386;-3.710;2023-12-20T01:05:21;7.50;62.00
43541;DHT22;29549;40.386;-3.710;2023-12-20T01:05:33;7.40;62.00
43541;DHT22;29549;40.386;-3.710;2023-12-20T01:05:44;7.40;62.10
43541;DHT22;29549;40.386;-3.710;2023-12-20T01:05:55;7.40;62.10
43541;DHT22;29549;40.386;-3.710;2023-12-20T01:06:06;7.50;62.10
43541;DHT22;29549;40.386;-3.710;2023-12-20T01:06:16;7.50;62.10
43541;DHT22;29549;40.386;-3.710;2023-12-20T01:06:27;7.40;62.10
43541;DHT22;29549;40.386;-3.710;2023-12-20T01:06:38;7.50;62.10
43541;DHT22;29549;40.386;-3.710;2023-12-20T01:06:49;7.40;62.10
43541;DHT22;29549;40.386;-3.710;2023-12-20T01:07:00;7.40;62.10
43541;DHT22;29549;40.386;-3.710;2023-12-20T01:07:11;7.40;62.20
43541;DHT22;29549;40.386;-3.710;2023-12-20T01:07:21;7.50;62.20
43541;DHT22;29549;40.386;-3.710;2023-12-20T01:07:32;7.50;62.20
43541;DHT22;29549;40.386;-3.710;2023-12-20T01:07:43;7.50;62.30
43541;DHT22;29549;40.386;-3.710;2023-12-20T01:07:54;7.40;62.30
43541;DHT22;29549;40.386;-3.710;2023-12-20T01:08:05;7.50;62.30
43541;DHT22;29549;40.386;-3.710;2023-12-20T01:08:16;7.50;62.20
43541;DHT22;29549;40.386;-3.710;2023-12-20T01:08:26;7.50;62.20
43541;DHT22;29549;40.386;-3.710;2023-12-20T01:08:37;7.50;62.20